Time;durP1;ratioP1;P1;durP2;ratioP2;P2;SDS_P1;SDS_P2;PMS_P1;PMS_P2;Temp;Humidity;BMP_temperature;BMP_pressure;BME280_temperature;BME280_humidity;BME280_pressure;Samples;Min_cycle;Max_cycle;Signal;HPM_P1;HPM_P2
2023/10/15 00:00:31;;;;;;;0.10;0.10;;;20.70;44.30;;;;;;5094152;28;20266;-47
2023/10/15 00:03:02;;;;;;;0.10;0.10;;;20.80;44.40;;;;;;5094260;28;20276;-55
2023/10/15 00:05:35;;;;;;;0.10;0.10;;;20.80;44.40;;;;;;5093879;28;20576;-46
2023/10/15 00:08:08;;;;;;;0.10;0.10;;;20.80;44.40;;;;;;5093623;28;20308;-51
2023/10/15 00:10:40;;;;;;;0.10;0.10;;;20.80;44.30;;;;;;5094959;28;20237;-52
2023/10/15 00:13:11;;;;;;;0.10;0.10;;;20.80;44.30;;;;;;5093880;28;20283;-51
2023/10/15 00:15:43;;;;;;;0.10;0.10;;;20.80;44.30;;;;;;5094236;28;20190;-53
2023/10/15 00:18:14;;;;;;;0.10;0.10;;;20.80;44.30;;;;;;5093411;28;20261;-53
2023/10/15 00:20:47;;;;;;;0.10;0.10;;;20.90;44.40;;;;;;5093727;28;20193;-51
2023/10/15 00:23:21;;;;;;;0.10;0.10;;;20.90;44.40;;;;;;5094574;28;20516;-51
2023/10/15 00:25:52;;;;;;;0.10;0.10;;;20.90;44.40;;;;;;5093726;28;20241;-53
2023/10/15 00:28:24;;;;;;;0.10;0.10;;;20.90;44.40;;;;;;5093615;28;20214;-51
2023/10/15 00:31:00;;;;;;;0.10;0.10;;;21.00;44.50;;;;;;5094078;28;20185;-55
2023/10/15 00:33:33;;;;;;;0.10;0.10;;;21.00;44.50;;;;;;5094563;28;20602;-54
2023/10/15 00:36:04;;;;;;;0.10;0.10;;;21.00;44.50;;;;;;5074207;28;20198;-52
2023/10/15 00:38:38;;;;;;;0.00;0.00;;;21.00;44.50;;;;;;5073951;28;20323;-51
2023/10/15 00:41:10;;;;;;;0.00;0.00;;;21.00;44.40;;;;;;5074098;28;20621;-53
2023/10/15 00:43:51;;;;;;;0.10;0.10;;;21.10;45.10;;;;;;5073728;28;20288;-55
2023/10/15 00:46:23;;;;;;;0.10;0.10;;;21.10;44.50;;;;;;5073517;28;20289;-53
2023/10/15 00:49:02;;;;;;;0.10;0.10;;;21.10;44.40;;;;;;5073464;28;20551;-53
2023/10/15 00:51:33;;;;;;;0.10;0.10;;;21.10;44.40;;;;;;5073657;28;20216;-50
2023/10/15 00:54:11;;;;;;;0.10;0.10;;;21.10;44.30;;;;;;5073601;28;20209;-54
2023/10/15 00:56:44;;;;;;;0.10;0.10;;;21.10;44.30;;;;;;5073051;28;20360;-54
2023/10/15 00:59:19;;;;;;;0.10;0.10;;;21.20;44.40;;;;;;5073065;28;20619;-55
2023/10/15 01:02:03;;;;;;;0.10;0.10;;;21.20;44.40;;;;;;5080695;28;20541;-51
2023/10/15 01:04:36;;;;;;;0.10;0.10;;;21.20;44.40;;;;;;5089237;28;20287;-52
2023/10/15 01:07:27;;;;;;;0.00;0.00;;;21.20;44.40;;;;;;5092552;28;20258;-54
2023/10/15 01:10:00;;;;;;;0.10;0.10;;;21.20;45.00;;;;;;5092722;28;20547;-54
2023/10/15 01:12:34;;;;;;;0.10;0.10;;;21.30;44.50;;;;;;5092484;28;20539;-55
2023/10/15 01:15:06;;;;;;;0.10;0.10;;;21.20;44.50;;;;;;5088863;28;20547;-54
2023/10/15 01:17:38;;;;;;;0.10;0.10;;;21.30;44.60;;;;;;5086996;28;20206;-56
2023/10/15 01:20:11;;;;;;;0.05;0.05;;;21.30;44.50;;;;;;5096151;28;20233;-50
2023/10/15 01:22:42;;;;;;;0.10;0.10;;;21.40;44.60;;;;;;5096256;28;20193;-52
2023/10/15 01:25:24;;;;;;;0.10;0.10;;;21.40;44.50;;;;;;5092440;28;20537;-54
2023/10/15 01:28:00;;;;;;;0.10;0.10;;;21.40;44.50;;;;;;5092906;28;20296;-48
2023/10/15 01:30:35;;;;;;;0.10;0.10;;;21.40;44.50;;;;;;5092657;28;20194;-53
2023/10/15 01:33:10;;;;;;;0.03;0.03;;;21.50;44.50;;;;;;5092879;28;20194;-53
2023/10/15 01:35:44;;;;;;;0.05;0.05;;;21.50;44.40;;;;;;5090895;28;20337;-54
2023/10/15 01:38:20;;;;;;;0.00;0.00;;;21.50;44.40;;;;;;5092759;28;20214;-54
2023/10/15 01:40:56;;;;;;;0.10;0.10;;;21.50;44.30;;;;;;5092004;28;20533;-53
2023/10/15 01:43:27;;;;;;;0.10;0.10;;;21.50;44.20;;;;;;5092684;28;20267;-55
2023/10/15 01:46:00;;;;;;;0.10;0.10;;;21.50;44.20;;;;;;5092532;28;20194;-51
2023/10/15 01:48:32;;;;;;;0.10;0.10;;;21.60;44.20;;;;;;5091987;28;20671;-50
2023/10/15 01:51:07;;;;;;;0.10;0.10;;;21.60;44.10;;;;;;5092141;28;20204;-42
2023/10/15 01:53:39;;;;;;;0.10;0.10;;;21.60;44.10;;;;;;5092234;28;20553;-52
2023/10/15 01:56:17;;;;;;;0.10;0.10;;;21.60;44.10;;;;;;5091799;28;20615;-55
2023/10/15 01:58:48;;;;;;;0.10;0.10;;;21.60;44.10;;;;;;5091661;28;20210;-51
2023/10/15 02:01:31;;;;;;;0.10;0.10;;;21.60;44.00;;;;;;5091823;28;20178;-50
2023/10/15 02:04:02;;;;;;;0.10;0.10;;;21.70;44.00;;;;;;5088841;28;20544;-48
2023/10/15 02:06:42;;;;;;;0.00;0.00;;;21.70;44.00;;;;;;5071195;28;20596;-45
2023/10/15 02:09:21;;;;;;;0.05;0.05;;;21.70;44.00;;;;;;5071945;28;20226;-43
2023/10/15 02:11:54;;;;;;;0.10;0.10;;;21.70;43.90;;;;;;5092128;28;20186;-48
2023/10/15 02:14:27;;;;;;;0.00;0.00;;;21.70;43.90;;;;;;5092690;28;20273;-50
2023/10/15 02:16:59;;;;;;;0.10;0.10;;;21.70;43.90;;;;;;5091888;28;20597;-44
2023/10/15 02:19:34;;;;;;;0.00;0.00;;;21.80;44.00;;;;;;5092097;28;20615;-46
2023/10/15 02:22:08;;;;;;;0.10;0.10;;;21.80;44.00;;;;;;5088386;28;20308;-45
2023/10/15 02:24:46;;;;;;;0.10;0.10;;;21.80;44.00;;;;;;5096760;28;20181;-44
2023/10/15 02:27:23;;;;;;;0.10;0.10;;;21.80;44.00;;;;;;5111464;28;20615;-47
2023/10/15 02:29:55;;;;;;;0.10;0.10;;;21.80;44.00;;;;;;5094274;28;20236;-48
2023/10/15 02:32:31;;;;;;;0.10;0.10;;;21.80;44.00;;;;;;5090977;28;20194;-46
2023/10/15 02:35:12;;;;;;;0.00;0.00;;;21.80;44.10;;;;;;5091864;28;20600;-48
2023/10/15 02:37:46;;;;;;;0.10;0.10;;;21.80;44.10;;;;;;5091417;28;20285;-48
2023/10/15 02:40:19;;;;;;;0.10;0.10;;;21.80;44.10;;;;;;5092326;28;20660;-44
2023/10/15 02:42:55;;;;;;;0.10;0.10;;;21.80;44.20;;;;;;5090691;28;20530;-49
2023/10/15 02:45:35;;;;;;;0.10;0.10;;;21.80;44.30;;;;;;5089795;28;20527;-54
2023/10/15 02:48:19;;;;;;;0.10;0.10;;;21.90;44.40;;;;;;5070659;28;20523;-47
2023/10/15 02:51:00;;;;;;;0.10;0.10;;;21.90;44.40;;;;;;5071636;28;20277;-51
2023/10/15 02:53:35;;;;;;;0.10;0.10;;;21.90;44.40;;;;;;5071860;28;20262;-48
2023/10/15 02:56:10;;;;;;;0.00;0.00;;;21.90;44.40;;;;;;5090944;28;20266;-48
2023/10/15 02:58:44;;;;;;;0.10;0.10;;;22.00;44.40;;;;;;5091257;28;20551;-53
2023/10/15 03:01:19;;;;;;;0.00;0.00;;;22.00;44.40;;;;;;5090479;28;20711;-50
2023/10/15 03:03:52;;;;;;;0.10;0.10;;;22.00;44.50;;;;;;5090720;28;20560;-49
2023/10/15 03:06:31;;;;;;;0.10;0.10;;;22.00;44.50;;;;;;5090591;28;20579;-50
2023/10/15 03:09:11;;;;;;;0.10;0.10;;;22.00;44.40;;;;;;5087038;28;20582;-55
2023/10/15 03:11:50;;;;;;;0.00;0.00;;;22.00;44.50;;;;;;5090356;28;20198;-54
2023/10/15 03:14:25;;;;;;;0.00;0.00;;;22.10;44.50;;;;;;5091493;28;20555;-48
2023/10/15 03:16:56;;;;;;;0.10;0.10;;;22.10;44.60;;;;;;5111533;28;20670;-47
2023/10/15 03:19:27;;;;;;;0.00;0.00;;;22.10;44.60;;;;;;5099441;28;20186;-55
2023/10/15 03:22:08;;;;;;;0.10;0.10;;;22.10;44.60;;;;;;5074854;28;20648;-55
2023/10/15 03:24:43;;;;;;;0.00;0.00;;;22.10;44.60;;;;;;5090369;28;20604;-54
2023/10/15 03:27:16;;;;;;;0.00;0.00;;;22.10;44.60;;;;;;5091584;28;20703;-54
2023/10/15 03:29:48;;;;;;;0.10;0.10;;;22.20;44.60;;;;;;5094417;28;20267;-55
2023/10/15 03:32:19;;;;;;;0.10;0.10;;;22.20;44.60;;;;;;5095106;28;20193;-55
2023/10/15 03:34:59;;;;;;;0.08;0.08;;;22.20;44.60;;;;;;5094889;28;20198;-55
2023/10/15 03:37:30;;;;;;;0.10;0.10;;;22.20;44.50;;;;;;5093843;28;20301;-55
2023/10/15 03:40:10;;;;;;;0.10;0.10;;;22.20;44.50;;;;;;5093384;28;20210;-56
2023/10/15 03:42:41;;;;;;;0.10;0.10;;;22.30;44.60;;;;;;5093918;28;20558;-50
2023/10/15 03:45:26;;;;;;;0.10;0.10;;;22.30;44.40;;;;;;5097524;28;20215;-54
2023/10/15 03:48:00;;;;;;;0.10;0.10;;;22.30;44.40;;;;;;5111466;28;20213;-50
2023/10/15 03:50:31;;;;;;;0.10;0.10;;;22.30;44.40;;;;;;5094599;28;20217;-51
2023/10/15 03:53:03;;;;;;;0.10;0.10;;;22.40;44.30;;;;;;5094067;28;20198;-51
2023/10/15 03:55:34;;;;;;;0.10;0.10;;;22.40;44.30;;;;;;5090557;28;20189;-52
2023/10/15 03:58:13;;;;;;;0.10;0.10;;;22.40;44.30;;;;;;5100783;28;20214;-46
2023/10/15 04:00:48;;;;;;;0.10;0.10;;;22.40;44.20;;;;;;5094688;28;20251;-48
2023/10/15 04:03:23;;;;;;;0.10;0.10;;;22.40;44.20;;;;;;5093928;28;20285;-47
2023/10/15 04:06:00;;;;;;;0.10;0.10;;;22.50;44.10;;;;;;5083607;28;20247;-53
2023/10/15 04:08:32;;;;;;;0.10;0.10;;;22.50;44.10;;;;;;5093751;28;20249;-55
2023/10/15 04:11:03;;;;;;;0.00;0.00;;;22.50;44.10;;;;;;5094825;28;20387;-54
2023/10/15 04:13:35;;;;;;;0.00;0.00;;;22.50;44.10;;;;;;5094060;28;20198;-54
2023/10/15 04:16:07;;;;;;;0.10;0.10;;;22.50;44.00;;;;;;5093951;28;20195;-53
2023/10/15 04:18:40;;;;;;;0.10;0.10;;;22.60;44.00;;;;;;5093935;28;20221;-50
2023/10/15 04:21:10;;;;;;;0.00;0.00;;;22.60;44.00;;;;;;5093450;28;20186;-54
2023/10/15 04:23:49;;;;;;;0.00;0.00;;;22.60;44.60;;;;;;5093821;28;20205;-55
2023/10/15 04:26:23;;;;;;;0.00;0.00;;;22.60;44.00;;;;;;5094219;28;20243;-48
2023/10/15 04:28:55;;;;;;;0.00;0.00;;;22.70;43.90;;;;;;5094613;28;20210;-51
2023/10/15 04:31:29;;;;;;;0.05;0.05;;;22.70;43.90;;;;;;5092378;28;20198;-54
2023/10/15 04:34:00;;;;;;;0.10;0.10;;;22.70;43.90;;;;;;5094105;28;20194;-55
2023/10/15 04:36:40;;;;;;;0.10;0.10;;;22.70;43.90;;;;;;5093514;28;20197;-54
2023/10/15 04:39:12;;;;;;;0.10;0.10;;;22.70;43.80;;;;;;5093818;28;20583;-50
2023/10/15 04:41:43;;;;;;;0.10;0.10;;;22.80;43.90;;;;;;5093960;28;20277;-51
2023/10/15 04:44:20;;;;;;;0.10;0.10;;;22.80;43.80;;;;;;5093377;28;20206;-55
2023/10/15 04:46:55;;;;;;;0.00;0.00;;;22.80;43.80;;;;;;5093909;28;20194;-51
2023/10/15 04:49:26;;;;;;;0.10;0.10;;;22.90;43.80;;;;;;5093035;28;20221;-54
2023/10/15 04:51:57;;;;;;;0.10;0.10;;;22.90;43.80;;;;;;5093679;28;20273;-54
2023/10/15 04:54:28;;;;;;;0.00;0.00;;;22.90;43.70;;;;;;5084736;28;20670;-55
2023/10/15 04:56:59;;;;;;;0.10;0.10;;;22.90;43.60;;;;;;5096842;28;20198;-54
2023/10/15 04:59:30;;;;;;;0.10;0.10;;;22.90;43.60;;;;;;5092840;28;20681;-52
2023/10/15 05:02:02;;;;;;;0.10;0.10;;;23.00;43.70;;;;;;5093831;28;20193;-48
2023/10/15 05:04:33;;;;;;;0.10;0.10;;;23.00;43.60;;;;;;5092783;28;20186;-47
2023/10/15 05:07:03;;;;;;;0.00;0.00;;;23.00;43.50;;;;;;5086254;28;20247;-46
2023/10/15 05:09:40;;;;;;;0.00;0.00;;;23.00;43.50;;;;;;5072844;28;20225;-52
2023/10/15 05:12:10;;;;;;;0.10;0.10;;;23.00;43.40;;;;;;5079209;28;20198;-50
2023/10/15 05:14:41;;;;;;;0.10;0.10;;;23.10;43.40;;;;;;5072750;28;20199;-48
2023/10/15 05:17:13;;;;;;;0.10;0.10;;;23.10;43.40;;;;;;5088585;28;20225;-50
2023/10/15 05:19:46;;;;;;;0.10;0.10;;;23.10;43.30;;;;;;5092700;28;20193;-47
2023/10/15 05:22:16;;;;;;;0.10;0.10;;;23.10;43.30;;;;;;5091280;28;20397;-48
2023/10/15 05:24:49;;;;;;;0.08;0.08;;;23.20;43.30;;;;;;5091735;28;20205;-51
2023/10/15 05:27:20;;;;;;;0.10;0.10;;;23.20;43.30;;;;;;5092072;28;20210;-49
2023/10/15 05:29:50;;;;;;;0.05;0.05;;;23.20;43.20;;;;;;5092512;28;20278;-51
2023/10/15 05:32:23;;;;;;;0.00;0.00;;;23.20;43.20;;;;;;5093043;28;20190;-51
2023/10/15 05:34:53;;;;;;;0.10;0.10;;;23.20;43.00;;;;;;5092568;28;20592;-47
2023/10/15 05:37:25;;;;;;;0.10;0.10;;;23.20;42.90;;;;;;5092766;28;20689;-50
2023/10/15 05:39:55;;;;;;;0.10;0.10;;;23.20;42.80;;;;;;5092825;28;20197;-48
2023/10/15 05:42:26;;;;;;;0.08;0.08;;;23.20;42.40;;;;;;5108210;28;20201;-46
2023/10/15 05:44:56;;;;;;;0.10;0.10;;;23.20;42.90;;;;;;5111908;28;20258;-52
2023/10/15 05:47:29;;;;;;;0.00;0.00;;;23.20;42.10;;;;;;5112476;28;20213;-52
2023/10/15 05:49:59;;;;;;;0.10;0.10;;;23.20;41.80;;;;;;5095571;28;20630;-50
2023/10/15 05:52:30;;;;;;;0.00;0.00;;;23.10;41.60;;;;;;5092590;28;20194;-50
2023/10/15 05:55:01;;;;;;;0.00;0.00;;;23.10;41.60;;;;;;5079916;28;20191;-55
2023/10/15 05:57:31;;;;;;;0.08;0.08;;;23.10;41.40;;;;;;5072480;28;20210;-54
2023/10/15 06:00:17;;;;;;;0.10;0.10;;;23.10;41.30;;;;;;5071728;28;20198;-55
2023/10/15 06:02:50;;;;;;;0.00;0.00;;;23.10;41.30;;;;;;5089553;28;20586;-53
2023/10/15 06:05:21;;;;;;;0.10;0.10;;;23.10;41.20;;;;;;5077259;28;20635;-55
2023/10/15 06:07:54;;;;;;;0.00;0.00;;;23.10;41.20;;;;;;5089856;28;20324;-54
2023/10/15 06:10:25;;;;;;;0.08;0.08;;;23.10;41.20;;;;;;5091720;28;20264;-54
2023/10/15 06:12:59;;;;;;;0.05;0.05;;;23.10;41.20;;;;;;5091739;28;20282;-54
2023/10/15 06:15:29;;;;;;;0.10;0.10;;;23.10;41.10;;;;;;5091825;28;20646;-55
2023/10/15 06:18:02;;;;;;;0.00;0.00;;;23.10;41.00;;;;;;5090997;28;20225;-56
2023/10/15 06:20:32;;;;;;;0.03;0.03;;;23.00;40.90;;;;;;5090965;28;20194;-54
2023/10/15 06:23:04;;;;;;;0.00;0.00;;;23.00;40.80;;;;;;5091553;28;20197;-54
2023/10/15 06:25:35;;;;;;;0.10;0.10;;;23.00;40.80;;;;;;5091538;28;20198;-53
2023/10/15 06:28:06;;;;;;;0.10;0.10;;;23.00;40.80;;;;;;5091797;28;20748;-55
2023/10/15 06:30:37;;;;;;;0.10;0.10;;;23.00;40.80;;;;;;5090970;28;20299;-55
2023/10/15 06:33:11;;;;;;;0.10;0.10;;;23.00;40.90;;;;;;5091289;28;20198;-54
2023/10/15 06:35:42;;;;;;;0.10;0.10;;;22.90;40.80;;;;;;5091296;28;20202;-54
2023/10/15 06:38:17;;;;;;;0.00;0.00;;;22.90;40.80;;;;;;5091584;28;20218;-57
2023/10/15 06:40:48;;;;;;;0.10;0.10;;;22.90;40.90;;;;;;5091813;28;20225;-52
2023/10/15 06:43:18;;;;;;;0.10;0.10;;;22.90;40.90;;;;;;5092022;28;20190;-51
2023/10/15 06:45:50;;;;;;;0.00;0.00;;;22.90;40.80;;;;;;5092186;28;20190;-53
2023/10/15 06:48:23;;;;;;;0.00;0.00;;;22.80;40.80;;;;;;5091796;28;20263;-56
2023/10/15 06:50:55;;;;;;;0.10;0.10;;;22.80;40.70;;;;;;5091617;28;20221;-51
2023/10/15 06:53:26;;;;;;;0.10;0.10;;;22.80;40.70;;;;;;5091162;28;20250;-49
2023/10/15 06:55:56;;;;;;;0.00;0.00;;;22.70;40.70;;;;;;5091267;28;20198;-55
2023/10/15 06:58:28;;;;;;;0.10;0.10;;;22.70;40.70;;;;;;5091520;28;20225;-52
2023/10/15 07:00:59;;;;;;;0.00;0.00;;;22.70;40.60;;;;;;5090632;28;20465;-50
2023/10/15 07:03:33;;;;;;;0.10;0.10;;;22.70;40.50;;;;;;5090568;28;20653;-53
2023/10/15 07:06:06;;;;;;;0.10;0.10;;;22.70;40.40;;;;;;5073809;28;20649;-45
2023/10/15 07:08:37;;;;;;;0.00;0.00;;;22.60;40.40;;;;;;5071360;28;20222;-52
2023/10/15 07:11:09;;;;;;;0.10;0.10;;;22.60;40.40;;;;;;5071262;28;20261;-54
2023/10/15 07:13:39;;;;;;;0.10;0.10;;;22.60;40.30;;;;;;5071255;28;20198;-53
2023/10/15 07:16:10;;;;;;;0.00;0.00;;;22.50;40.30;;;;;;5070907;28;20194;-44
2023/10/15 07:18:43;;;;;;;0.10;0.10;;;22.50;40.30;;;;;;5070893;28;20211;-49
2023/10/15 07:21:14;;;;;;;0.10;0.10;;;22.50;40.30;;;;;;5070919;28;20205;-49
2023/10/15 07:23:45;;;;;;;0.05;0.05;;;22.50;40.30;;;;;;5071390;28;20198;-43
2023/10/15 07:26:15;;;;;;;0.10;0.10;;;22.40;40.30;;;;;;5071299;28;20573;-55
2023/10/15 07:28:46;;;;;;;0.10;0.10;;;22.40;40.30;;;;;;5071010;28;20265;-55
2023/10/15 07:31:17;;;;;;;0.10;0.10;;;22.30;40.20;;;;;;5076198;28;20233;-51
2023/10/15 07:33:49;;;;;;;0.10;0.10;;;22.30;40.20;;;;;;5091305;28;20198;-55
2023/10/15 07:36:21;;;;;;;0.00;0.00;;;22.30;40.30;;;;;;5090594;28;20198;-54
2023/10/15 07:38:52;;;;;;;0.10;0.10;;;22.30;40.30;;;;;;5090786;28;20237;-52
2023/10/15 07:41:23;;;;;;;0.10;0.10;;;22.20;40.30;;;;;;5090823;28;20202;-54
2023/10/15 07:43:53;;;;;;;0.10;0.10;;;22.20;40.30;;;;;;5091353;28;20214;-56
2023/10/15 07:46:24;;;;;;;0.10;0.10;;;22.20;40.30;;;;;;5090955;28;20194;-50
2023/10/15 07:48:57;;;;;;;0.00;0.00;;;22.20;41.00;;;;;;5090667;28;20225;-54
2023/10/15 07:51:28;;;;;;;0.10;0.10;;;22.10;40.30;;;;;;5090100;28;20696;-54
2023/10/15 07:53:58;;;;;;;0.10;0.10;;;22.10;40.30;;;;;;5091074;28;20233;-55
2023/10/15 07:56:29;;;;;;;0.00;0.00;;;22.10;40.30;;;;;;5091157;28;20199;-52
2023/10/15 07:59:00;;;;;;;0.13;0.13;;;22.10;40.30;;;;;;5090837;28;20202;-54
2023/10/15 08:01:30;;;;;;;0.10;0.10;;;22.00;40.20;;;;;;5091204;28;20198;-52
2023/10/15 08:04:03;;;;;;;0.00;0.00;;;22.00;40.30;;;;;;5090831;28;20572;-55
2023/10/15 08:06:33;;;;;;;0.10;0.10;;;22.00;40.30;;;;;;5091527;28;20599;-53
2023/10/15 08:09:04;;;;;;;0.10;0.10;;;22.00;40.30;;;;;;5094435;28;20222;-53
2023/10/15 08:11:35;;;;;;;0.10;0.10;;;21.90;40.30;;;;;;5094366;28;20680;-47
2023/10/15 08:14:05;;;;;;;0.10;0.10;;;21.90;40.30;;;;;;5094235;28;20200;-53
2023/10/15 08:16:36;;;;;;;0.00;0.00;;;21.90;40.40;;;;;;5094007;28;20201;-50
2023/10/15 08:19:09;;;;;;;0.10;0.10;;;21.80;40.30;;;;;;5093736;28;20226;-55
2023/10/15 08:21:39;;;;;;;0.10;0.10;;;21.80;40.30;;;;;;5094270;28;20346;-55
2023/10/15 08:24:10;;;;;;;0.10;0.10;;;21.70;40.30;;;;;;5094022;28;20654;-52
2023/10/15 08:26:41;;;;;;;0.10;0.10;;;21.70;40.30;;;;;;5093999;28;20194;-54
2023/10/15 08:29:12;;;;;;;0.10;0.10;;;21.70;40.30;;;;;;5093489;28;20218;-56
2023/10/15 08:31:42;;;;;;;0.00;0.00;;;21.70;40.30;;;;;;5093241;28;20229;-50
2023/10/15 08:34:15;;;;;;;0.10;0.10;;;21.70;40.30;;;;;;5093025;28;21089;-55
2023/10/15 08:36:45;;;;;;;0.10;0.10;;;21.60;40.30;;;;;;5093839;28;20201;-52
2023/10/15 08:39:16;;;;;;;0.10;0.10;;;21.60;40.30;;;;;;5092749;28;20217;-48
2023/10/15 08:41:48;;;;;;;0.10;0.10;;;21.60;40.40;;;;;;5087897;28;20202;-47
2023/10/15 08:44:20;;;;;;;0.10;0.10;;;21.50;40.30;;;;;;5082663;28;20670;-46
2023/10/15 08:46:53;;;;;;;0.10;0.10;;;21.50;40.40;;;;;;5083724;28;20724;-42
2023/10/15 08:49:29;;;;;;;0.00;0.00;;;21.50;40.40;;;;;;5082842;28;20376;-50
2023/10/15 08:52:01;;;;;;;0.00;0.00;;;21.50;40.40;;;;;;5086824;28;20209;-44
2023/10/15 08:54:32;;;;;;;0.10;0.10;;;21.50;40.40;;;;;;5076139;28;20202;-44
2023/10/15 08:57:04;;;;;;;0.10;0.10;;;21.40;40.30;;;;;;5073987;28;20195;-49
2023/10/15 08:59:38;;;;;;;0.10;0.10;;;21.40;40.40;;;;;;5074002;28;20281;-50
2023/10/15 09:02:10;;;;;;;0.05;0.05;;;21.40;40.40;;;;;;5072518;28;20570;-53
2023/10/15 09:04:44;;;;;;;0.10;0.10;;;21.40;40.40;;;;;;5083585;28;20232;-52
2023/10/15 09:07:16;;;;;;;0.00;0.00;;;21.30;40.30;;;;;;5102003;28;20213;-49
2023/10/15 09:09:49;;;;;;;0.10;0.10;;;21.30;40.30;;;;;;5092968;28;20280;-51
2023/10/15 09:12:19;;;;;;;0.10;0.10;;;21.30;40.30;;;;;;5093527;28;20272;-49
2023/10/15 09:14:50;;;;;;;0.10;0.10;;;21.30;40.30;;;;;;5092424;28;20194;-45
2023/10/15 09:17:21;;;;;;;0.10;0.10;;;21.20;40.20;;;;;;5092868;28;20578;-51
2023/10/15 09:19:56;;;;;;;0.10;0.10;;;21.20;40.20;;;;;;5088010;28;20658;-53
2023/10/15 09:22:28;;;;;;;0.00;0.00;;;21.20;40.20;;;;;;5095255;28;20657;-48
2023/10/15 09:24:59;;;;;;;0.10;0.10;;;21.20;40.20;;;;;;5101805;28;20641;-53
2023/10/15 09:27:30;;;;;;;0.00;0.00;;;21.10;40.30;;;;;;5092373;28;20202;-53
2023/10/15 09:30:18;;;;;;;0.10;0.10;;;21.10;40.30;;;;;;5091950;28;20198;-54
2023/10/15 09:32:50;;;;;;;0.10;0.10;;;21.10;40.20;;;;;;5092245;28;20272;-51
2023/10/15 09:35:24;;;;;;;0.00;0.00;;;21.00;40.20;;;;;;5093056;28;20210;-53
2023/10/15 09:37:58;;;;;;;0.10;0.10;;;21.00;40.20;;;;;;5105743;28;20212;-54
2023/10/15 09:40:31;;;;;;;0.10;0.10;;;21.00;40.20;;;;;;5110752;28;20197;-55
2023/10/15 09:43:02;;;;;;;0.00;0.00;;;20.90;40.20;;;;;;5092165;28;20186;-55
2023/10/15 09:45:33;;;;;;;0.00;0.00;;;20.90;40.20;;;;;;5091286;28;20197;-52
2023/10/15 09:48:05;;;;;;;0.10;0.10;;;20.90;40.20;;;;;;5091759;28;20214;-53
2023/10/15 09:50:41;;;;;;;0.10;0.10;;;20.90;40.20;;;;;;5091426;28;20216;-53
2023/10/15 09:53:16;;;;;;;0.10;0.10;;;20.80;40.20;;;;;;5091669;28;20190;-48
2023/10/15 09:55:49;;;;;;;0.10;0.10;;;20.80;40.20;;;;;;5092145;28;20288;-49
2023/10/15 09:58:20;;;;;;;0.10;0.10;;;20.80;40.20;;;;;;5088550;28;20218;-46
2023/10/15 10:01:08;;;;;;;0.10;0.10;;;20.80;40.20;;;;;;5091995;28;20195;-47
2023/10/15 10:04:18;;;;;;;0.10;0.10;;;20.70;40.20;;;;;;5109605;28;20197;-45
2023/10/15 10:07:18;;;;;;;0.10;0.10;;;20.70;40.20;;;;;;5078736;28;20194;-53
2023/10/15 10:10:17;;;;;;;0.10;0.10;;;20.70;40.20;;;;;;5087991;28;20194;-54
2023/10/15 10:13:07;;;;;;;0.00;0.00;;;20.70;40.10;;;;;;5079275;28;20246;-51
2023/10/15 10:15:47;;;;;;;0.10;0.10;;;20.60;40.10;;;;;;5071499;28;20197;-54
2023/10/15 10:18:18;;;;;;;0.10;0.10;;;20.60;40.10;;;;;;5086410;28;20268;-53
2023/10/15 10:20:49;;;;;;;0.10;0.10;;;20.60;40.20;;;;;;5091945;28;20245;-54
2023/10/15 10:23:22;;;;;;;0.10;0.10;;;20.50;40.10;;;;;;5091087;28;20715;-51
2023/10/15 10:25:58;;;;;;;0.10;0.10;;;20.50;40.20;;;;;;5092185;28;20285;-52
2023/10/15 10:28:29;;;;;;;0.10;0.10;;;20.50;40.20;;;;;;5091645;28;20227;-54
2023/10/15 10:31:00;;;;;;;0.10;0.10;;;20.40;40.20;;;;;;5091799;28;20696;-54
2023/10/15 10:33:54;;;;;;;0.10;0.10;;;20.50;40.30;;;;;;5091317;28;20193;-51
2023/10/15 10:36:26;;;;;;;0.10;0.10;;;20.40;40.20;;;;;;5081251;28;20255;-54
2023/10/15 10:39:15;;;;;;;0.10;0.10;;;20.40;40.20;;;;;;5091576;28;20202;-49
2023/10/15 10:41:46;;;;;;;0.10;0.10;;;20.40;40.20;;;;;;5091213;28;20225;-45
2023/10/15 10:44:40;;;;;;;0.10;0.10;;;20.30;40.20;;;;;;5091216;28;20270;-49
2023/10/15 10:47:24;;;;;;;0.10;0.10;;;20.30;40.20;;;;;;5091353;28;20273;-50
2023/10/15 10:49:59;;;;;;;0.10;0.10;;;20.30;40.20;;;;;;5090956;28;20205;-51
2023/10/15 10:52:35;;;;;;;0.10;0.10;;;20.30;40.20;;;;;;5091431;28;20232;-49
2023/10/15 10:55:34;;;;;;;0.10;0.10;;;20.30;40.30;;;;;;5090940;28;20276;-53
2023/10/15 10:58:24;;;;;;;0.10;0.10;;;20.20;40.20;;;;;;5084758;28;20260;-51
2023/10/15 11:00:55;;;;;;;0.00;0.00;;;20.20;40.20;;;;;;5082679;28;20663;-52
2023/10/15 11:03:26;;;;;;;0.10;0.10;;;20.20;40.30;;;;;;5081054;28;20206;-51
2023/10/15 11:05:57;;;;;;;0.10;0.10;;;20.10;40.20;;;;;;5082718;28;20191;-53
2023/10/15 11:08:27;;;;;;;0.10;0.10;;;20.10;40.30;;;;;;5079730;28;20213;-53
2023/10/15 11:11:00;;;;;;;0.05;0.05;;;20.10;40.30;;;;;;5080608;28;20653;-55
2023/10/15 11:13:31;;;;;;;0.05;0.05;;;20.10;40.30;;;;;;5080293;28;20223;-53
2023/10/15 11:16:02;;;;;;;0.10;0.10;;;20.10;40.40;;;;;;5081453;28;20600;-55
2023/10/15 11:18:35;;;;;;;0.10;0.10;;;20.00;40.40;;;;;;5082022;28;20218;-50
2023/10/15 11:21:07;;;;;;;0.10;0.10;;;20.00;40.40;;;;;;5081636;28;20187;-54
2023/10/15 11:23:38;;;;;;;0.10;0.10;;;20.00;40.40;;;;;;5080740;28;20183;-50
2023/10/15 11:26:11;;;;;;;0.10;0.10;;;20.00;40.40;;;;;;5080329;28;20277;-54
2023/10/15 11:28:42;;;;;;;0.10;0.10;;;20.00;40.40;;;;;;5079352;28;20622;-53
2023/10/15 11:31:13;;;;;;;0.10;0.10;;;20.00;40.50;;;;;;5080994;28;20215;-51
2023/10/15 11:33:44;;;;;;;0.10;0.10;;;20.00;40.50;;;;;;5080864;28;20182;-48
2023/10/15 11:36:17;;;;;;;0.10;0.10;;;20.00;40.50;;;;;;5082317;28;20186;-55
2023/10/15 11:38:47;;;;;;;0.10;0.10;;;20.00;40.50;;;;;;5080203;28;20684;-51
2023/10/15 11:41:22;;;;;;;0.10;0.10;;;19.90;40.50;;;;;;5082376;28;20197;-55
2023/10/15 11:43:55;;;;;;;0.00;0.00;;;19.90;40.50;;;;;;5083384;28;20186;-52
2023/10/15 11:46:25;;;;;;;0.10;0.10;;;19.90;40.50;;;;;;5087790;28;20194;-54
2023/10/15 11:48:58;;;;;;;0.00;0.00;;;19.90;40.60;;;;;;5094808;28;20222;-55
2023/10/15 11:51:28;;;;;;;0.10;0.10;;;19.80;40.50;;;;;;5094911;28;20261;-52
2023/10/15 11:54:02;;;;;;;0.10;0.10;;;19.80;40.60;;;;;;5094952;28;20207;-48
2023/10/15 11:56:34;;;;;;;0.10;0.10;;;19.80;40.60;;;;;;5095016;28;20190;-55
2023/10/15 11:59:05;;;;;;;0.10;0.10;;;19.70;40.60;;;;;;5094862;28;20252;-54
2023/10/15 12:01:36;;;;;;;0.10;0.10;;;19.80;40.60;;;;;;5094918;28;20649;-50
2023/10/15 12:04:07;;;;;;;0.10;0.10;;;19.70;40.60;;;;;;5094921;28;20237;-52
2023/10/15 12:06:38;;;;;;;0.00;0.00;;;19.70;40.70;;;;;;5094614;28;20225;-54
2023/10/15 12:09:12;;;;;;;0.10;0.10;;;19.70;40.70;;;;;;5093455;28;20614;-54
2023/10/15 12:11:47;;;;;;;0.10;0.10;;;19.70;40.70;;;;;;5094427;28;20592;-55
2023/10/15 12:14:17;;;;;;;0.10;0.10;;;19.60;40.70;;;;;;5094864;28;20194;-55
2023/10/15 12:16:48;;;;;;;0.10;0.10;;;19.60;40.70;;;;;;5094684;28;20198;-52
2023/10/15 12:19:19;;;;;;;0.10;0.10;;;19.60;40.70;;;;;;5094673;28;20198;-52
2023/10/15 12:21:50;;;;;;;0.10;0.10;;;19.60;40.70;;;;;;5095184;28;20672;-51
2023/10/15 12:24:20;;;;;;;0.10;0.10;;;19.60;40.70;;;;;;5094604;28;20653;-48
2023/10/15 12:26:54;;;;;;;0.10;0.10;;;19.60;40.80;;;;;;5094617;28;20198;-51
2023/10/15 12:29:30;;;;;;;0.10;0.10;;;19.60;40.80;;;;;;5094487;28;20186;-52
2023/10/15 12:32:01;;;;;;;0.10;0.10;;;19.50;40.70;;;;;;5094810;28;20309;-53
2023/10/15 12:34:31;;;;;;;0.10;0.10;;;19.50;40.70;;;;;;5086812;28;20206;-53
2023/10/15 12:37:07;;;;;;;0.00;0.00;;;19.50;40.70;;;;;;5073776;28;20605;-50
2023/10/15 12:39:40;;;;;;;0.10;0.10;;;19.50;40.80;;;;;;5074134;28;20244;-53
2023/10/15 12:42:13;;;;;;;0.08;0.08;;;19.40;40.70;;;;;;5074082;28;20199;-53
2023/10/15 12:44:44;;;;;;;0.10;0.10;;;19.40;40.70;;;;;;5074559;28;20191;-52
2023/10/15 12:47:15;;;;;;;0.10;0.10;;;19.40;40.80;;;;;;5079525;28;20246;-47
2023/10/15 12:49:45;;;;;;;0.10;0.10;;;19.40;40.80;;;;;;5094366;28;20189;-54
2023/10/15 12:52:16;;;;;;;0.10;0.10;;;19.40;40.90;;;;;;5093610;28;20226;-53
2023/10/15 12:54:46;;;;;;;0.10;0.10;;;19.30;40.90;;;;;;5094127;28;20194;-52
2023/10/15 12:57:19;;;;;;;0.10;0.10;;;19.30;40.90;;;;;;5093364;28;20591;-50
2023/10/15 12:59:50;;;;;;;0.10;0.10;;;19.30;40.90;;;;;;5093145;28;20278;-53
2023/10/15 13:02:21;;;;;;;0.10;0.10;;;19.30;40.90;;;;;;5093660;28;20669;-45
2023/10/15 13:04:52;;;;;;;0.10;0.10;;;19.30;40.90;;;;;;5083188;28;20693;-54
2023/10/15 13:07:22;;;;;;;0.10;0.10;;;19.30;41.50;;;;;;5073253;28;20214;-51
2023/10/15 13:09:53;;;;;;;0.10;0.10;;;19.20;40.80;;;;;;5073215;28;20202;-54
2023/10/15 13:12:26;;;;;;;0.10;0.10;;;19.20;40.80;;;;;;5073377;28;20222;-51
2023/10/15 13:14:58;;;;;;;0.10;0.10;;;19.20;40.80;;;;;;5073718;28;20199;-54
2023/10/15 13:17:28;;;;;;;0.13;0.13;;;19.20;40.90;;;;;;5073371;28;20758;-55
2023/10/15 13:19:59;;;;;;;0.20;0.20;;;19.20;40.80;;;;;;5073418;28;20202;-55